Time;durP1;ratioP1;P1;durP2;ratioP2;P2;SDS_P1;SDS_P2;PMS_P1;PMS_P2;Temp;Humidity;BMP_temperature;BMP_pressure;BME280_temperature;BME280_humidity;BME280_pressure;Samples;Min_cycle;Max_cycle;Signal;HPM_P1;HPM_P2
2023/09/23 00:01:04;;;;;;;1.93;0.77;;;;;;;20.39;100.00;95688.75;5053186;28;20161;-79
2023/09/23 00:03:33;;;;;;;1.83;1.00;;;;;;;20.07;100.00;95686.44;5053434;28;20440;-79
2023/09/23 00:06:00;;;;;;;2.37;0.83;;;;;;;20.71;100.00;95684.66;5056274;28;20024;-79
2023/09/23 00:08:33;;;;;;;4.77;1.10;;;;;;;20.55;100.00;95687.22;5051564;28;20028;-79
2023/09/23 00:10:59;;;;;;;4.50;1.50;;;;;;;20.74;100.00;95693.25;5045654;28;20039;-79
2023/09/23 00:13:26;;;;;;;2.43;0.90;;;;;;;20.09;100.00;95691.56;5054827;28;20108;-79
2023/09/23 00:15:52;;;;;;;2.50;1.00;;;;;;;20.00;100.00;95694.56;5058948;28;20024;-81
2023/09/23 00:18:18;;;;;;;3.23;0.90;;;;;;;20.05;100.00;95691.19;5059598;28;20027;-79
2023/09/23 00:20:46;;;;;;;1.87;0.60;;;;;;;20.05;100.00;95695.72;5047973;28;20024;-81
2023/09/23 00:23:15;;;;;;;2.97;0.80;;;;;;;19.82;100.00;95700.00;5065271;28;20495;-82
2023/09/23 00:25:41;;;;;;;4.27;0.83;;;;;;;19.39;100.00;95698.38;5062613;28;20028;-83
2023/09/23 00:28:10;;;;;;;3.80;0.73;;;;;;;19.51;100.00;95683.19;5039966;28;20050;-79
2023/09/23 00:30:37;;;;;;;1.37;0.63;;;;;;;19.58;100.00;95680.44;5063483;28;20032;-80
2023/09/23 00:33:04;;;;;;;1.00;0.60;;;;;;;19.78;100.00;95688.16;5055103;28;20118;-80
2023/09/23 00:35:31;;;;;;;2.03;0.60;;;;;;;19.90;100.00;95694.31;5054554;28;20129;-80
2023/09/23 00:37:57;;;;;;;3.33;0.97;;;;;;;19.77;100.00;95699.88;5057265;28;20016;-79
2023/09/23 00:40:32;;;;;;;16.03;8.73;;;;;;;19.81;100.00;95701.03;5058616;28;20027;-80
2023/09/23 00:43:12;;;;;;;6.23;3.00;;;;;;;19.87;100.00;95699.31;5055040;28;20059;-80
2023/09/23 00:45:45;;;;;;;2.23;0.80;;;;;;;20.02;100.00;95689.00;5054916;28;20023;-80
2023/09/23 00:48:10;;;;;;;2.60;0.70;;;;;;;19.90;100.00;95694.31;5060718;28;20028;-80
2023/09/23 00:50:36;;;;;;;1.40;0.70;;;;;;;20.05;100.00;95698.38;5055110;28;20045;-80
2023/09/23 00:53:04;;;;;;;1.07;0.70;;;;;;;19.78;100.00;95699.66;5053123;28;20028;-80
2023/09/23 00:55:36;;;;;;;3.20;0.70;;;;;;;19.47;100.00;95694.56;5060216;28;20016;-80
2023/09/23 00:58:04;;;;;;;2.40;0.70;;;;;;;20.02;100.00;95695.16;5054366;28;20107;-80
2023/09/23 01:00:43;;;;;;;2.80;1.17;;;;;;;19.77;100.00;95690.00;5067122;28;20036;-80
2023/09/23 01:03:10;;;;;;;2.47;0.90;;;;;;;19.71;100.00;95698.94;5069551;28;20035;-80
2023/09/23 01:05:36;;;;;;;1.13;0.70;;;;;;;19.90;100.00;95697.00;5049428;28;20030;-80
2023/09/23 01:08:25;;;;;;;2.53;0.90;;;;;;;19.44;100.00;95709.16;5067915;28;20114;-80
2023/09/23 01:10:52;;;;;;;4.23;0.90;;;;;;;19.38;100.00;95704.72;5067778;28;20035;-80
2023/09/23 01:13:24;;;;;;;1.60;0.63;;;;;;;19.47;100.00;95708.69;5069254;28;20029;-80
2023/09/23 01:15:51;;;;;;;2.20;0.83;;;;;;;19.06;100.00;95707.63;5052538;28;20026;-80
2023/09/23 01:18:20;;;;;;;3.23;0.70;;;;;;;19.39;100.00;95709.03;5050243;28;20401;-80
2023/09/23 01:20:50;;;;;;;4.33;0.60;;;;;;;19.24;100.00;95714.78;5056088;28;20446;-80
2023/09/23 01:23:16;;;;;;;3.20;0.80;;;;;;;19.27;100.00;95713.50;5070249;28;20877;-80
2023/09/23 01:25:41;;;;;;;2.97;0.80;;;;;;;19.17;100.00;95719.38;5064618;28;20067;-80
2023/09/23 01:28:13;;;;;;;1.53;0.80;;;;;;;19.24;100.00;95721.97;5050004;28;20047;-80
2023/09/23 01:30:40;;;;;;;2.10;0.67;;;;;;;18.78;100.00;95726.03;5066032;28;20408;-80
2023/09/23 01:33:08;;;;;;;2.03;0.70;;;;;;;19.36;100.00;95736.16;5050088;28;20196;-79
2023/09/23 01:35:37;;;;;;;1.33;0.67;;;;;;;19.45;100.00;95737.47;5055329;28;20020;-79
2023/09/23 01:38:04;;;;;;;3.97;1.10;;;;;;;19.13;100.00;95738.72;5051760;28;20082;-79
2023/09/23 01:40:31;;;;;;;2.00;0.70;;;;;;;19.47;100.00;95750.56;5069253;28;20028;-79
2023/09/23 01:42:58;;;;;;;2.03;0.60;;;;;;;19.10;100.00;95742.66;5070061;28;20034;-80
2023/09/23 01:45:26;;;;;;;0.30;0.30;;;;;;;19.32;100.00;95758.97;5053952;28;20035;-79
2023/09/23 01:47:56;;;;;;;0.43;0.33;;;;;;;19.51;100.00;95757.88;5047861;28;20028;-79
2023/09/23 01:50:23;;;;;;;4.00;0.60;;;;;;;19.11;100.00;95768.25;5059475;28;20039;-80
2023/09/23 01:52:49;;;;;;;2.93;0.50;;;;;;;19.30;100.00;95775.19;5051490;28;20020;-80
2023/09/23 01:55:17;;;;;;;2.63;0.67;;;;;;;19.02;100.00;95775.75;5051896;28;20511;-79
2023/09/23 01:57:43;;;;;;;1.57;0.40;;;;;;;19.44;100.00;95767.00;5057771;28;20089;-79
2023/09/23 02:00:14;;;;;;;1.43;0.50;;;;;;;19.49;100.00;95775.97;5051725;28;20085;-79
2023/09/23 02:02:42;;;;;;;1.30;0.50;;;;;;;18.81;100.00;95773.53;5053318;28;20035;-80
2023/09/23 02:05:08;;;;;;;2.40;0.60;;;;;;;19.15;100.00;95772.13;5056870;28;20050;-80
2023/09/23 02:07:34;;;;;;;2.07;0.80;;;;;;;19.70;100.00;95780.00;5057719;28;20107;-80
2023/09/23 02:10:00;;;;;;;2.10;0.57;;;;;;;19.42;100.00;95774.44;5073199;28;20118;-80
2023/09/23 02:12:26;;;;;;;1.40;0.60;;;;;;;19.21;100.00;95779.19;5053453;28;20420;-80
2023/09/23 02:14:53;;;;;;;0.90;0.53;;;;;;;19.27;100.00;95793.50;5056579;28;20556;-80
2023/09/23 02:17:20;;;;;;;1.37;0.60;;;;;;;19.00;100.00;95793.81;5049772;28;20397;-80
2023/09/23 02:19:47;;;;;;;3.43;0.80;;;;;;;18.89;100.00;95791.88;5056681;28;20152;-80
2023/09/23 02:22:13;;;;;;;2.33;0.63;;;;;;;19.06;100.00;95795.59;5059625;28;20036;-80
2023/09/23 02:24:40;;;;;;;1.87;0.80;;;;;;;19.60;100.00;95809.06;5047849;28;20020;-80
2023/09/23 02:27:06;;;;;;;5.87;0.60;;;;;;;19.33;100.00;95805.94;5057162;28;20024;-80
2023/09/23 02:29:33;;;;;;;2.40;0.70;;;;;;;19.52;100.00;95801.38;5056304;28;20035;-79
2023/09/23 02:32:00;;;;;;;1.47;0.60;;;;;;;19.25;100.00;95808.91;5056557;28;20058;-80
2023/09/23 02:34:28;;;;;;;3.83;0.80;;;;;;;19.63;100.00;95805.97;5062705;28;20019;-80
2023/09/23 02:36:54;;;;;;;3.77;0.70;;;;;;;19.34;100.00;95812.88;5055672;28;20020;-80
2023/09/23 02:39:20;;;;;;;2.43;0.70;;;;;;;19.27;100.00;95828.94;5072332;28;20023;-81
2023/09/23 02:41:47;;;;;;;3.13;0.83;;;;;;;19.51;100.00;95819.22;5050945;28;20039;-80
2023/09/23 02:44:19;;;;;;;1.87;0.60;;;;;;;19.63;100.00;95821.13;5056901;28;20103;-80
2023/09/23 02:46:54;;;;;;;2.40;1.00;;;;;;;19.51;100.00;95826.41;5045922;28;20032;-80
2023/09/23 02:49:21;;;;;;;4.00;1.00;;;;;;;19.40;100.00;95830.66;5060729;28;20028;-80
2023/09/23 02:51:48;;;;;;;4.20;1.10;;;;;;;19.41;100.00;95828.78;5063312;28;20111;-80
2023/09/23 02:54:17;;;;;;;1.80;0.50;;;;;;;19.21;100.00;95839.69;5070801;28;20032;-80
2023/09/23 02:56:52;;;;;;;2.97;0.83;;;;;;;19.31;100.00;95832.81;5052276;28;20021;-80
2023/09/23 02:59:26;;;;;;;2.20;0.90;;;;;;;19.39;100.00;95838.88;5069563;28;20020;-80
2023/09/23 03:01:53;;;;;;;2.63;0.70;;;;;;;18.62;100.00;95847.25;5051655;28;20145;-80
2023/09/23 03:04:23;;;;;;;2.33;0.80;;;;;;;19.59;100.00;95849.31;5036174;28;20589;-80
2023/09/23 03:06:56;;;;;;;2.53;0.97;;;;;;;19.47;100.00;95847.38;5060944;28;20028;-80
2023/09/23 03:09:26;;;;;;;2.80;0.90;;;;;;;19.39;100.00;95847.69;5041778;28;20024;-80
2023/09/23 03:11:56;;;;;;;1.93;1.00;;;;;;;19.62;100.00;95848.84;5064049;28;20034;-80
2023/09/23 03:14:42;;;;;;;3.57;1.00;;;;;;;19.41;100.00;95847.47;5065954;28;20027;-80
2023/09/23 03:17:09;;;;;;;2.03;0.90;;;;;;;19.47;100.00;95852.72;5049984;28;20020;-79
2023/09/23 03:19:36;;;;;;;2.53;1.03;;;;;;;19.77;100.00;95855.44;5049731;28;20059;-79
2023/09/23 03:22:02;;;;;;;1.83;0.90;;;;;;;19.65;100.00;95859.09;5048842;28;20036;-79
2023/09/23 03:24:53;;;;;;;2.77;1.10;;;;;;;19.16;100.00;95859.03;5043499;28;20042;-79
2023/09/23 03:27:28;;;;;;;2.80;1.13;;;;;;;19.14;100.00;95852.28;5053061;28;20063;-80
2023/09/23 03:30:00;;;;;;;2.17;1.13;;;;;;;19.19;100.00;95852.44;5049131;28;20031;-80
2023/09/23 03:32:29;;;;;;;3.13;1.00;;;;;;;19.35;100.00;95856.34;5046177;28;20032;-80
2023/09/23 03:34:56;;;;;;;4.83;1.50;;;;;;;19.16;100.00;95855.56;5040096;28;20680;-79
2023/09/23 03:37:29;;;;;;;3.03;0.80;;;;;;;18.93;100.00;95862.34;5047718;28;20494;-80
2023/09/23 03:39:55;;;;;;;2.25;1.10;;;;;;;19.27;100.00;95862.81;5055324;28;20032;-80
2023/09/23 03:42:24;;;;;;;2.27;1.00;;;;;;;19.05;100.00;95859.78;5052180;28;20024;-79
2023/09/23 03:44:50;;;;;;;3.33;1.00;;;;;;;19.52;100.00;95860.88;5067722;28;20523;-79
2023/09/23 03:47:16;;;;;;;3.63;1.17;;;;;;;19.24;100.00;95865.91;5066952;28;20033;-80
2023/09/23 03:49:42;;;;;;;4.43;1.00;;;;;;;19.51;100.00;95861.88;5041432;28;20497;-79
2023/09/23 03:52:08;;;;;;;2.90;1.00;;;;;;;19.46;100.00;95869.75;5047792;28;20020;-80
2023/09/23 03:54:33;;;;;;;3.67;1.03;;;;;;;19.25;100.00;95871.03;5061278;28;20020;-79
2023/09/23 03:56:59;;;;;;;1.33;0.80;;;;;;;19.45;100.00;95870.81;5050219;28;20058;-79
2023/09/23 03:59:26;;;;;;;5.90;1.17;;;;;;;18.92;100.00;95875.91;5041266;28;20029;-79
2023/09/23 04:01:59;;;;;;;4.00;0.90;;;;;;;19.33;100.00;95877.09;5050204;28;20474;-79
2023/09/23 04:04:25;;;;;;;;;;;;;;;18.84;100.00;95884.97;5040776;28;20075;-79
2023/09/23 04:06:51;;;;;;;2.33;0.70;;;;;;;19.21;100.00;95879.69;5067797;28;19912;-79
2023/09/23 04:09:16;;;;;;;3.40;0.90;;;;;;;19.25;100.00;95888.88;5065953;28;20567;-79
2023/09/23 04:11:42;;;;;;;3.20;1.13;;;;;;;19.18;100.00;95886.28;5065001;28;20035;-79
2023/09/23 04:14:08;;;;;;;2.40;0.97;;;;;;;18.45;100.00;95886.94;5042679;28;20065;-78
2023/09/23 04:16:33;;;;;;;2.60;0.93;;;;;;;18.80;100.00;95883.78;5048207;28;20116;-79
2023/09/23 04:18:59;;;;;;;3.27;1.17;;;;;;;19.05;100.00;95876.59;5040727;28;20020;-79
2023/09/23 04:21:25;;;;;;;3.53;0.93;;;;;;;18.82;100.00;95885.22;5052326;28;20485;-79
2023/09/23 04:23:52;;;;;;;2.70;1.00;;;;;;;19.00;100.00;95880.94;5054116;28;20401;-79
2023/09/23 04:26:24;;;;;;;2.93;0.97;;;;;;;18.95;100.00;95891.47;5049018;28;20036;-80
2023/09/23 04:28:53;;;;;;;3.57;1.20;;;;;;;18.88;100.00;95891.53;5048788;28;20024;-79
2023/09/23 04:31:19;;;;;;;1.70;1.10;;;;;;;18.57;100.00;95905.66;5046817;28;20032;-79
2023/09/23 04:33:47;;;;;;;3.30;1.10;;;;;;;19.23;100.00;95893.63;5045141;28;20126;-79
2023/09/23 04:36:21;;;;;;;3.50;1.30;;;;;;;19.33;100.00;95893.91;5041817;28;20024;-79
2023/09/23 04:39:06;;;;;;;;;;;;;;;19.30;100.00;95899.69;5057383;28;20241;-79
2023/09/23 04:41:33;;;;;;;3.60;1.00;;;;;;;19.26;100.00;95903.84;5047045;28;20511;-79
2023/09/23 04:43:59;;;;;;;3.60;1.10;;;;;;;19.32;100.00;95902.97;5044548;28;20054;-79
2023/09/23 04:46:27;;;;;;;2.43;1.23;;;;;;;19.14;100.00;95902.94;5041362;28;20107;-79
2023/09/23 04:48:52;;;;;;;4.73;1.83;;;;;;;18.54;100.00;95911.44;5048521;28;20477;-79
2023/09/23 04:51:18;;;;;;;2.57;1.00;;;;;;;18.56;100.00;95914.69;5078244;28;20024;-78
2023/09/23 04:53:43;;;;;;;4.23;1.50;;;;;;;18.79;100.00;95914.94;5050411;28;20035;-78
2023/09/23 04:56:10;;;;;;;3.20;1.17;;;;;;;18.62;100.00;95924.50;5048823;28;20039;-79
2023/09/23 04:58:36;;;;;;;7.83;1.63;;;;;;;18.66;100.00;95931.00;5064438;28;20508;-79
2023/09/23 05:01:03;;;;;;;3.90;1.70;;;;;;;18.58;100.00;95934.75;5067529;28;20012;-79
2023/09/23 05:03:29;;;;;;;3.40;1.10;;;;;;;18.22;100.00;95934.59;5052066;28;20032;-79
2023/09/23 05:05:55;;;;;;;3.73;1.10;;;;;;;18.68;100.00;95939.63;5052498;28;20028;-79
2023/09/23 05:08:21;;;;;;;2.70;1.13;;;;;;;18.54;100.00;95954.03;5046583;28;20040;-79
2023/09/23 05:10:47;;;;;;;2.27;1.07;;;;;;;18.15;100.00;95955.94;5052953;28;20032;-79
2023/09/23 05:13:17;;;;;;;2.90;1.20;;;;;;;18.35;100.00;95966.47;5064942;28;20522;-79
2023/09/23 05:15:43;;;;;;;1.80;0.93;;;;;;;18.27;100.00;95970.19;5065084;28;20028;-79
2023/09/23 05:18:08;;;;;;;5.50;1.67;;;;;;;18.41;100.00;95978.09;5048566;28;20027;-79
2023/09/23 05:20:34;;;;;;;3.40;1.33;;;;;;;17.98;100.00;95976.91;5071189;28;20027;-79
2023/09/23 05:23:04;;;;;;;3.57;1.40;;;;;;;18.19;100.00;95977.63;5061218;28;20057;-78
2023/09/23 05:25:31;;;;;;;2.63;1.30;;;;;;;18.32;100.00;95988.19;5055632;28;20031;-83
2023/09/23 05:27:57;;;;;;;5.37;1.90;;;;;;;18.25;100.00;95979.44;5052470;28;20359;-78
2023/09/23 05:30:26;;;;;;;2.10;1.03;;;;;;;18.57;100.00;95982.91;5071394;28;20027;-78
2023/09/23 05:32:51;;;;;;;2.80;1.40;;;;;;;18.70;100.00;95990.81;5045724;28;20362;-78
2023/09/23 05:35:18;;;;;;;3.13;1.30;;;;;;;18.52;100.00;95996.88;5050098;28;20031;-78
2023/09/23 05:37:43;;;;;;;3.07;1.20;;;;;;;18.51;100.00;95997.91;5061040;28;20134;-78
2023/09/23 05:40:21;;;;;;;2.93;1.27;;;;;;;18.77;100.00;96002.25;5050661;28;20047;-78
2023/09/23 05:42:47;;;;;;;2.03;1.20;;;;;;;19.43;100.00;96010.72;5048328;28;20020;-78
2023/09/23 05:45:14;;;;;;;2.60;1.43;;;;;;;19.01;100.00;96005.16;5047858;28;20176;-78
2023/09/23 05:47:41;;;;;;;2.93;1.30;;;;;;;18.84;100.00;96008.34;5058884;28;20104;-78
2023/09/23 05:50:09;;;;;;;1.43;0.90;;;;;;;18.95;100.00;96004.19;5028608;28;20036;-78
2023/09/23 05:52:36;;;;;;;3.33;1.10;;;;;;;18.87;100.00;96001.78;5014887;28;20039;-78
2023/09/23 05:55:05;;;;;;;1.83;0.83;;;;;;;18.58;100.00;96004.00;5065860;28;20475;-78
2023/09/23 05:57:34;;;;;;;3.07;1.10;;;;;;;18.61;100.00;96008.91;5051782;28;20023;-78
2023/09/23 06:00:00;;;;;;;2.07;1.20;;;;;;;18.71;100.00;96010.25;5058842;28;20055;-79
2023/09/23 06:02:26;;;;;;;3.80;1.10;;;;;;;19.02;100.00;96009.47;5069904;28;20421;-80
2023/09/23 06:04:51;;;;;;;2.57;1.00;;;;;;;18.68;100.00;96008.03;5070882;28;20035;-79
2023/09/23 06:07:18;;;;;;;6.30;1.00;;;;;;;18.74;100.00;96008.00;5050733;28;20028;-79
2023/09/23 06:09:44;;;;;;;2.93;1.13;;;;;;;19.20;100.00;96006.81;5067095;28;20104;-80
2023/09/23 06:12:10;;;;;;;4.03;1.07;;;;;;;19.71;100.00;96012.94;5058345;28;20106;-81
2023/09/23 06:14:36;;;;;;;3.40;1.13;;;;;;;19.80;100.00;96008.13;5064912;28;20066;-86
2023/09/23 06:17:17;;;;;;;1.63;0.80;;;;;;;21.25;98.14;96007.13;5053200;28;20028;-83
2023/09/23 06:19:43;;;;;;;4.07;1.20;;;;;;;21.84;98.57;96007.94;5063436;28;20038;-83
2023/09/23 06:22:08;;;;;;;2.50;1.00;;;;;;;22.19;85.63;96010.56;5044463;28;20032;-83
2023/09/23 06:24:34;;;;;;;2.67;0.87;;;;;;;22.46;91.79;96010.81;5060565;28;20031;-84
2023/09/23 06:26:59;;;;;;;1.77;0.90;;;;;;;23.07;83.16;96008.41;5062931;28;20180;-83
2023/09/23 06:29:27;;;;;;;2.80;1.10;;;;;;;22.83;83.48;96010.38;5053843;28;20028;-83
2023/09/23 06:31:55;;;;;;;17.70;8.03;;;;;;;23.93;76.93;96010.75;5054239;28;20048;-84
2023/09/23 06:34:20;;;;;;;7.37;2.60;;;;;;;23.53;82.81;96019.84;5049695;28;20033;-79
2023/09/23 06:36:46;;;;;;;7.03;1.73;;;;;;;22.79;84.63;96028.00;5065703;28;20036;-79
2023/09/23 06:39:11;;;;;;;1.80;0.95;;;;;;;23.22;78.56;96030.13;5048804;28;20019;-79
2023/09/23 06:41:37;;;;;;;1.90;0.80;;;;;;;22.80;82.04;96037.69;5058719;28;20532;-78
2023/09/23 06:44:04;;;;;;;2.47;0.98;;;;;;;22.77;81.85;96033.63;5050383;28;20034;-79
2023/09/23 06:46:31;;;;;;;2.15;1.05;;;;;;;23.36;82.28;96037.84;5064018;28;20478;-78
2023/09/23 06:48:56;;;;;;;1.42;0.60;;;;;;;23.08;79.69;96042.22;5065501;28;20259;-79
2023/09/23 06:51:22;;;;;;;2.22;0.95;;;;;;;22.43;88.12;96042.63;5065374;28;20073;-79
2023/09/23 06:53:47;;;;;;;3.55;0.90;;;;;;;23.15;77.49;96048.25;5053071;28;20081;-79
2023/09/23 06:56:13;;;;;;;1.60;0.98;;;;;;;22.86;78.29;96060.84;5047001;28;20032;-78
2023/09/23 06:58:38;;;;;;;1.02;0.50;;;;;;;23.91;72.52;96054.00;5056137;28;20468;-79
2023/09/23 07:01:04;;;;;;;3.30;1.08;;;;;;;23.12;73.56;96064.81;5069103;28;20622;-80
2023/09/23 07:03:29;;;;;;;1.40;0.65;;;;;;;23.40;76.04;96066.63;5044947;28;20051;-80
2023/09/23 07:05:55;;;;;;;3.47;0.70;;;;;;;23.20;74.46;96061.72;5051123;28;20802;-80
2023/09/23 07:08:20;;;;;;;1.20;0.60;;;;;;;23.94;75.16;96066.09;5063252;28;20693;-80
2023/09/23 07:10:46;;;;;;;2.80;0.75;;;;;;;24.06;69.77;96066.81;5050081;28;20047;-80
2023/09/23 07:13:12;;;;;;;1.77;0.82;;;;;;;24.62;65.24;96067.53;5057229;28;20024;-80
2023/09/23 07:15:39;;;;;;;1.55;0.80;;;;;;;25.48;62.43;96069.41;5041150;28;20036;-80
2023/09/23 07:18:05;;;;;;;2.35;0.80;;;;;;;24.79;63.45;96077.38;5063231;28;20501;-78
2023/09/23 07:20:31;;;;;;;1.40;0.65;;;;;;;24.86;61.92;96086.06;5054239;28;20432;-80
2023/09/23 07:22:58;;;;;;;1.98;0.82;;;;;;;25.95;60.14;96082.16;5061269;28;20527;-80
2023/09/23 07:25:24;;;;;;;2.95;1.00;;;;;;;25.72;56.79;96090.59;5064159;28;20039;-80
2023/09/23 07:27:49;;;;;;;2.92;1.00;;;;;;;25.40;60.50;96094.94;5048621;28;20024;-80
2023/09/23 07:30:15;;;;;;;1.45;0.60;;;;;;;25.40;60.93;96103.00;5042888;28;20040;-80
2023/09/23 07:32:41;;;;;;;6.20;0.80;;;;;;;25.51;57.64;96108.47;5063505;28;20024;-81
2023/09/23 07:35:07;;;;;;;3.63;0.80;;;;;;;25.32;58.18;96113.44;5065512;28;20052;-81
2023/09/23 07:37:33;;;;;;;2.05;0.70;;;;;;;26.19;53.65;96119.47;5048167;28;20161;-81
2023/09/23 07:39:59;;;;;;;2.58;1.08;;;;;;;27.72;52.12;96117.25;5043589;28;20032;-81
2023/09/23 07:42:24;;;;;;;2.88;0.88;;;;;;;27.87;48.88;96119.19;5048025;28;20035;-81
2023/09/23 07:44:50;;;;;;;2.97;1.05;;;;;;;27.91;49.51;96128.34;5062713;28;20035;-81
2023/09/23 07:47:16;;;;;;;3.92;1.17;;;;;;;27.09;50.83;96135.53;5064323;28;20027;-81
2023/09/23 07:49:41;;;;;;;3.60;1.10;;;;;;;26.56;50.79;96135.63;5046310;28;20028;-81
2023/09/23 07:52:07;;;;;;;2.35;0.95;;;;;;;26.81;51.62;96140.31;5068919;28;20570;-81
2023/09/23 07:54:33;;;;;;;4.10;0.80;;;;;;;25.60;52.80;96144.66;5043879;28;20079;-81
2023/09/23 07:56:58;;;;;;;2.25;0.82;;;;;;;25.39;54.24;96147.16;5048073;28;20040;-81
2023/09/23 07:59:24;;;;;;;3.00;1.08;;;;;;;25.64;55.74;96149.25;5048154;28;20024;-81
2023/09/23 08:01:50;;;;;;;2.45;0.75;;;;;;;25.93;54.03;96154.38;5068538;28;20031;-82
2023/09/23 08:04:15;;;;;;;4.30;1.00;;;;;;;26.70;51.30;96158.34;5047752;28;20028;-81
2023/09/23 08:06:41;;;;;;;1.95;0.93;;;;;;;26.80;50.50;96165.66;5052899;28;20028;-79
2023/09/23 08:09:08;;;;;;;2.60;0.77;;;;;;;26.77;50.09;96167.00;5069168;28;20405;-82
2023/09/23 08:11:34;;;;;;;2.45;1.00;;;;;;;25.33;53.04;96174.28;5059172;28;20032;-81
2023/09/23 08:14:01;;;;;;;2.80;0.63;;;;;;;26.00;52.81;96168.44;5055958;28;20028;-82
2023/09/23 08:16:26;;;;;;;3.05;0.73;;;;;;;26.71;50.02;96176.16;5066237;28;20824;-82
2023/09/23 08:18:55;;;;;;;2.55;0.63;;;;;;;26.24;51.07;96178.81;5072713;28;20016;-81
2023/09/23 08:21:21;;;;;;;1.65;0.70;;;;;;;26.46;49.56;96184.91;5051326;28;20034;-82
2023/09/23 08:23:46;;;;;;;3.75;0.57;;;;;;;26.25;49.13;96185.84;5073438;28;20020;-82
2023/09/23 08:26:12;;;;;;;2.20;0.73;;;;;;;26.55;49.58;96188.75;5052477;28;20024;-81
2023/09/23 08:28:37;;;;;;;1.52;0.60;;;;;;;25.75;52.18;96193.25;5074227;28;20028;-82
2023/09/23 08:31:03;;;;;;;3.58;1.10;;;;;;;25.69;52.50;96194.28;5074881;28;20025;-82
2023/09/23 08:33:28;;;;;;;3.17;0.90;;;;;;;27.44;49.23;96203.13;5062037;28;20035;-82
2023/09/23 08:35:55;;;;;;;1.90;0.90;;;;;;;27.71;47.47;96194.78;5060607;28;20383;-82
2023/09/23 08:38:21;;;;;;;1.98;0.90;;;;;;;25.14;52.60;96208.81;5043206;28;20063;-81
2023/09/23 08:40:46;;;;;;;2.10;0.70;;;;;;;25.12;55.25;96213.63;5051917;28;20469;-82
2023/09/23 08:43:12;;;;;;;2.75;1.00;;;;;;;25.06;55.38;96212.72;5066095;28;20445;-81
2023/09/23 08:45:43;;;;;;;2.55;0.82;;;;;;;24.40;60.17;96223.44;5053933;28;20119;-81
2023/09/23 08:48:11;;;;;;;2.53;0.70;;;;;;;23.84;65.57;96216.34;5072699;28;20038;-82
2023/09/23 08:50:42;;;;;;;2.10;0.98;;;;;;;24.23;62.29;96209.97;5053526;28;20024;-82
2023/09/23 08:53:08;;;;;;;1.92;0.73;;;;;;;24.86;59.93;96209.78;5066889;28;20036;-83
2023/09/23 08:55:55;;;;;;;5.53;1.50;;;;;;;24.52;61.74;96217.97;5046597;28;20028;-81
2023/09/23 08:58:21;;;;;;;3.85;0.88;;;;;;;25.41;57.24;96211.50;5071943;28;20028;-82
2023/09/23 09:00:47;;;;;;;3.38;0.70;;;;;;;25.37;53.98;96213.09;5051275;28;20657;-82
2023/09/23 09:03:13;;;;;;;3.42;0.98;;;;;;;27.02;51.58;96214.84;5052046;28;20055;-83
2023/09/23 09:05:40;;;;;;;3.33;0.98;;;;;;;26.46;50.62;96219.13;5053955;28;20032;-82
2023/09/23 09:08:06;;;;;;;1.67;0.85;;;;;;;25.89;49.50;96220.63;5050602;28;20486;-82
2023/09/23 09:10:32;;;;;;;3.38;0.80;;;;;;;28.24;45.69;96209.97;5075119;28;20429;-83
2023/09/23 09:13:03;;;;;;;2.38;0.73;;;;;;;25.89;48.85;96217.94;5051122;28;20025;-82
2023/09/23 09:15:30;;;;;;;3.83;1.05;;;;;;;25.43;51.79;96228.22;5038761;28;20398;-82
2023/09/23 09:18:00;;;;;;;2.65;0.90;;;;;;;24.97;50.48;96230.38;5065654;28;20036;-82
2023/09/23 09:20:26;;;;;;;2.75;0.88;;;;;;;24.37;54.53;96231.94;5051082;28;20040;-83
2023/09/23 09:22:52;;;;;;;3.88;1.00;;;;;;;26.54;50.61;96222.19;5064732;28;20048;-82
2023/09/23 09:25:20;;;;;;;9.15;1.10;;;;;;;27.34;46.64;96223.91;5055808;28;20111;-82
2023/09/23 09:27:46;;;;;;;1.83;0.70;;;;;;;27.91;45.05;96221.06;5067660;28;20043;-82
2023/09/23 09:30:13;;;;;;;2.60;0.70;;;;;;;27.55;44.67;96224.75;5053466;28;20034;-82
2023/09/23 09:32:43;;;;;;;3.35;1.00;;;;;;;26.15;47.26;96232.41;5052719;28;20290;-82
2023/09/23 09:35:17;;;;;;;2.25;0.60;;;;;;;26.52;47.88;96232.41;5069916;28;20073;-80
2023/09/23 09:37:45;;;;;;;3.63;1.13;;;;;;;26.64;47.18;96236.81;5062469;28;20040;-80
2023/09/23 09:40:21;;;;;;;2.78;1.42;;;;;;;25.76;49.57;96237.19;5065405;28;20031;-82
2023/09/23 09:42:55;;;;;;;6.10;1.80;;;;;;;26.61;47.25;96238.13;5065784;28;20158;-81
2023/09/23 09:45:22;;;;;;;3.97;1.17;;;;;;;27.39;45.05;96234.72;5053770;28;20035;-80
2023/09/23 09:48:04;;;;;;;2.17;1.35;;;;;;;27.84;43.85;96231.31;5079907;28;20402;-81
2023/09/23 09:50:33;;;;;;;2.83;1.00;;;;;;;28.75;42.17;96231.53;5045487;28;20039;-81
2023/09/23 09:52:59;;;;;;;3.03;1.17;;;;;;;28.00;43.68;96228.59;5035793;28;20452;-80
2023/09/23 09:55:25;;;;;;;2.53;0.77;;;;;;;27.61;43.59;96239.91;5057466;28;20031;-80
2023/09/23 09:57:54;;;;;;;3.33;0.95;;;;;;;28.85;42.51;96231.50;5032059;28;20027;-80
2023/09/23 10:02:47;;;;;;;4.68;2.15;;;;;;;27.40;42.32;96229.06;5059456;28;20031;-80
2023/09/23 10:05:20;;;;;;;9.18;4.72;;;;;;;29.55;41.12;96217.94;5070366;28;20020;-79
2023/09/23 10:08:13;;;;;;;10.82;5.97;;;;;;;29.65;38.56;96220.63;5068887;28;20031;-80
2023/09/23 10:10:44;;;;;;;2.97;1.10;;;;;;;28.62;40.54;96225.59;5056330;28;20443;-79
2023/09/23 10:13:23;;;;;;;3.13;0.80;;;;;;;27.65;42.42;96224.78;5059840;28;20032;-80
2023/09/23 10:15:50;;;;;;;3.20;1.20;;;;;;;28.93;38.20;96216.59;5059059;28;20048;-81
2023/09/23 10:18:19;;;;;;;2.05;0.82;;;;;;;29.71;40.29;96215.94;5067932;28;20368;-80
2023/09/23 10:20:51;;;;;;;3.88;1.33;;;;;;;30.10;38.30;96218.63;5074733;28;20350;-80
2023/09/23 10:23:19;;;;;;;3.85;1.35;;;;;;;29.57;37.83;96219.25;5047250;28;20059;-80
2023/09/23 10:25:46;;;;;;;4.45;1.23;;;;;;;29.46;38.33;96220.41;5065930;28;20027;-80
2023/09/23 10:28:23;;;;;;;4.35;1.77;;;;;;;29.85;37.40;96227.78;5047620;28;20027;-81
2023/09/23 10:31:00;;;;;;;3.50;1.08;;;;;;;29.67;38.50;96226.53;5050715;28;20024;-80
2023/09/23 10:33:27;;;;;;;5.88;1.88;;;;;;;30.89;38.08;96219.28;5049031;28;20136;-80
2023/09/23 10:35:59;;;;;;;1.85;0.80;;;;;;;28.13;38.83;96220.75;5060565;28;20455;-81
2023/09/23 10:38:27;;;;;;;2.47;0.90;;;;;;;28.91;40.11;96225.00;5042486;28;20032;-80
2023/09/23 10:40:54;;;;;;;3.72;1.42;;;;;;;27.68;39.22;96226.94;5044563;28;20024;-80
2023/09/23 10:43:23;;;;;;;3.80;1.10;;;;;;;28.20;38.65;96217.78;5065738;28;20032;-80
2023/09/23 10:45:53;;;;;;;2.97;1.10;;;;;;;27.30;38.85;96217.41;5049537;28;20027;-80
2023/09/23 10:48:18;;;;;;;2.85;1.00;;;;;;;28.31;38.95;96211.31;5045473;28;20028;-81
2023/09/23 10:50:45;;;;;;;3.97;1.30;;;;;;;28.34;39.68;96216.16;5045998;28;20020;-80
2023/09/23 10:53:11;;;;;;;3.15;1.00;;;;;;;27.19;41.71;96225.47;5071074;28;21389;-81
2023/09/23 10:55:39;;;;;;;2.03;1.00;;;;;;;27.31;39.79;96229.84;5054208;28;20498;-81
2023/09/23 10:58:09;;;;;;;2.70;0.98;;;;;;;29.52;38.10;96223.91;5030256;28;20028;-81
2023/09/23 11:00:38;;;;;;;2.38;0.82;;;;;;;29.16;36.96;96220.59;5015961;28;20092;-80
2023/09/23 11:03:12;;;;;;;2.38;0.80;;;;;;;30.44;36.74;96229.47;5038881;28;20021;-81
2023/09/23 11:05:39;;;;;;;2.00;1.13;;;;;;;30.49;36.28;96225.91;5033035;28;20024;-81
2023/09/23 11:08:06;;;;;;;2.38;0.80;;;;;;;29.93;35.18;96227.19;5041897;28;20051;-80
2023/09/23 11:10:34;;;;;;;3.13;0.80;;;;;;;29.37;35.62;96216.66;5059951;28;20070;-81
2023/09/23 11:13:00;;;;;;;3.40;1.00;;;;;;;30.09;34.71;96222.44;5046628;28;20032;-80
2023/09/23 11:15:25;;;;;;;2.90;0.90;;;;;;;31.00;34.37;96220.75;5056379;28;20032;-81
2023/09/23 11:17:55;;;;;;;4.40;1.27;;;;;;;29.48;35.71;96231.00;5050973;28;20027;-81
2023/09/23 11:20:32;;;;;;;2.38;0.90;;;;;;;28.63;37.70;96235.34;5048842;28;20027;-81
2023/09/23 11:23:05;;;;;;;3.53;1.08;;;;;;;28.31;36.46;96232.13;5062401;28;20016;-81
2023/09/23 11:25:39;;;;;;;6.40;1.77;;;;;;;28.69;37.99;96233.44;5048406;28;20074;-81
2023/09/23 11:28:05;;;;;;;5.22;1.83;;;;;;;28.01;37.33;96230.25;5041495;28;20032;-80
2023/09/23 11:30:31;;;;;;;5.75;1.90;;;;;;;27.37;38.15;96242.28;5047696;28;20020;-81
2023/09/23 11:32:56;;;;;;;2.15;0.90;;;;;;;27.05;38.88;96243.22;5051306;28;20020;-81
2023/09/23 11:35:23;;;;;;;3.63;1.25;;;;;;;26.75;39.67;96243.88;5048087;28;20019;-81